Eastern Shore: Past 24 Hour Conditions

 

St. Peters

05:00 AM ADT 16 April 2014
This table is a summary of hourly weather conditions for the past 24 hours.
Date / Time
(ADT)
Wind(knots) Conditions Visibility(km) Pressure(kPa) Air tempC) Relative humidity(%) Dew pointC)
16 April 2014
5:00 S 20 gust 28 N/A N/A 100.6 14 89 13
4:00 S 17 gust 25 N/A N/A 100.7 14 91 13
3:00 SSE 17 gust 24 N/A N/A 100.8 14 92 13
2:00 S 18 gust 27 N/A N/A 100.9 15 88 13
1:00 SSE 15 gust 22 N/A N/A 100.9 14 90 12
0:00 S 14 gust 21 N/A N/A 101.0 14 92 13
15 April 2014
23:00 S 19 gust 24 N/A N/A 101.0 14 88 13
22:00 S 19 gust 26 N/A N/A 101.1 15 85 12
21:00 S 18 gust 24 N/A N/A 101.1 15 82 12
20:00 S 13 gust 18 N/A N/A 101.1 16 71 11
19:00 S 23 gust 29 N/A N/A 101.1 18 61 11
18:00 S 14 gust 20 N/A N/A 101.1 19 58 11
17:00 SSW 15 gust 31 N/A N/A 101.2 20 56 11
16:00 S 22 gust 37 N/A N/A 101.2 20 54 11
15:00 S 24 gust 30 N/A N/A 101.2 20 56 11
14:00 S 21 gust 27 N/A N/A 101.3 21 57 12
13:00 SSW 24 gust 34 N/A N/A 101.3 19 63 12
12:00 SSW 26 N/A N/A 101.4 18 69 12
11:00 SSW 22 gust 27 N/A N/A 101.5 17 70 11
10:00 SSW 19 gust 24 N/A N/A 101.5 15 74 11
9:00 SSW 17 gust 24 N/A N/A 101.5 14 81 11
8:00 SSW 15 N/A N/A 101.5 13 86 10
7:00 SSW 11 gust 16 N/A N/A 101.5 12 87 10
6:00 SSW 13 gust 20 N/A N/A 101.4 12 86 10
5:00 SSW 13 N/A N/A 101.4 12 87 10
 
Map of Atlantic - Newfoundland marine weather areas Southwestern Grand Banks - 44138 Banquereau - 44139 Tail of the Bank - 44140 Nickerson Bank - 44251 Northeast Burgeo Bank - 44255 Blanc-Sablon Airport Cap Whittle Chevery Natashquan Airport Heath Point Miscou Island Grand Étang Ingonish Beach North Mountain St.Paul Island J.A. Douglas McCurdy Sydney Airport Charlottetown Airport East Point North Cape Argentia Bonavista Burgeo Cape Race Corner Brook Daniel's Harbour Englee Ferolle Point La Scie Port aux Basques Rocky Harbour Sagona Island St. Anthony Airport St. John's Int'l Airport St. Lawrence Stephenville Airport Twillingate Winterland Wreckhouse Cartwright Airport Mary's Harbour Grates Cove Pool's Island Marticot Island Long Pond Îles de la Madeleine Airport
Legend: buoyBuoy land stationLand Station